createdAt,value
2023-03-25T00:01:20.949Z,99094.69
2023-03-25T00:03:51.488Z,99096.69
2023-03-25T00:06:20.451Z,99098.47
2023-03-25T00:08:49.131Z,99101.75
2023-03-25T00:11:17.733Z,99110.09
2023-03-25T00:13:46.139Z,99103.69
2023-03-25T00:16:14.521Z,99115.66
2023-03-25T00:18:43.234Z,99119.94
2023-03-25T00:21:12.671Z,99122.16
2023-03-25T00:23:42.338Z,99125.72
2023-03-25T00:26:11.671Z,99133.06
2023-03-25T00:28:40.627Z,99131.72
2023-03-25T00:31:13.770Z,99134.69
2023-03-25T00:33:43.133Z,99137.72
2023-03-25T00:36:15.495Z,99137.91
2023-03-25T00:38:44.189Z,99148.00
2023-03-25T00:41:26.812Z,99144.09
2023-03-25T00:43:58.043Z,99143.56
2023-03-25T00:46:28.418Z,99147.06
2023-03-25T00:48:59.317Z,99143.44
2023-03-25T00:51:29.518Z,99155.06
2023-03-25T00:54:01.231Z,99155.25
2023-03-25T00:56:31.240Z,99161.03
2023-03-25T00:58:59.639Z,99166.59
2023-03-25T01:01:29.575Z,99170.34
2023-03-25T01:03:59.906Z,99164.09
2023-03-25T01:06:33.989Z,99171.19
2023-03-25T01:09:05.835Z,99169.84
2023-03-25T01:11:35.943Z,99176.41
2023-03-25T01:14:06.905Z,99177.06
2023-03-25T01:16:35.420Z,99181.56
2023-03-25T01:19:04.235Z,99185.03
2023-03-25T01:21:37.541Z,99192.38
2023-03-25T01:24:06.975Z,99198.13
2023-03-25T01:26:35.535Z,99198.81
2023-03-25T01:29:04.069Z,99206.66
2023-03-25T01:31:32.446Z,99205.28
2023-03-25T01:34:01.590Z,99201.09
2023-03-25T01:36:33.181Z,99205.56
2023-03-25T01:39:02.394Z,99197.25
2023-03-25T01:41:46.431Z,99208.13
2023-03-25T01:44:23.660Z,99204.88
2023-03-25T01:46:54.525Z,99199.38
2023-03-25T01:49:41.660Z,99206.91
2023-03-25T01:52:14.885Z,99213.66
2023-03-25T01:54:44.375Z,99208.13
2023-03-25T01:57:20.426Z,99208.47
2023-03-25T01:59:49.754Z,99221.38
2023-03-25T02:02:20.194Z,99211.72
2023-03-25T02:05:04.818Z,99215.63
2023-03-25T02:07:35.643Z,99216.19
2023-03-25T02:10:09.184Z,99224.22
2023-03-25T02:12:37.797Z,99220.94
2023-03-25T02:15:09.373Z,99225.38
2023-03-25T02:17:46.380Z,99224.41
2023-03-25T02:20:46.368Z,99223.94
2023-03-25T02:23:29.095Z,99230.88
2023-03-25T02:26:30.750Z,99232.69
2023-03-25T02:29:24.906Z,99229.06
2023-03-25T02:32:14.969Z,99225.97
2023-03-25T02:34:47.473Z,99227.00
2023-03-25T02:37:47.753Z,99225.25
2023-03-25T02:40:22.375Z,99231.19
2023-03-25T02:42:56.934Z,99224.28
2023-03-25T02:45:50.941Z,99220.41
2023-03-25T02:48:27.081Z,99225.03
2023-03-25T02:50:59.066Z,99221.91
2023-03-25T02:53:38.793Z,99227.09
2023-03-25T02:56:11.910Z,99229.41
2023-03-25T02:58:42.850Z,99217.75
2023-03-25T03:01:11.250Z,99217.81
2023-03-25T03:03:39.782Z,99218.81
2023-03-25T03:06:09.380Z,99221.31
2023-03-25T03:08:52.704Z,99215.72
2023-03-25T03:11:27.014Z,99211.59
2023-03-25T03:14:35.532Z,99216.91
2023-03-25T03:17:10.193Z,99216.97
2023-03-25T03:19:50.326Z,99215.88
2023-03-25T03:22:55.066Z,99211.94
2023-03-25T03:25:46.864Z,99216.28
2023-03-25T03:28:40.781Z,99211.56
2023-03-25T03:31:48.551Z,99212.53
2023-03-25T03:34:30.135Z,99208.00
2023-03-25T03:37:01.856Z,99203.13
2023-03-25T03:39:34.818Z,99204.03
2023-03-25T03:42:13.072Z,99202.53
2023-03-25T03:44:46.651Z,99199.66
2023-03-25T03:47:25.331Z,99198.91
2023-03-25T03:50:20.029Z,99184.88
2023-03-25T03:53:17.588Z,99195.09
2023-03-25T03:56:02.727Z,99188.84
2023-03-25T03:58:36.169Z,99185.97
2023-03-25T04:01:14.060Z,99189.34
2023-03-25T04:03:56.571Z,99174.56
2023-03-25T04:06:36.428Z,99178.88
2023-03-25T04:09:35.587Z,99175.63
2023-03-25T04:12:36.420Z,99169.94
2023-03-25T04:15:07.261Z,99162.72
2023-03-25T04:17:35.666Z,99166.25
2023-03-25T04:20:09.967Z,99159.78
2023-03-25T04:22:39.430Z,99158.97
2023-03-25T04:25:08.523Z,99155.34
2023-03-25T04:27:38.779Z,99150.16
2023-03-25T04:30:09.181Z,99141.44
2023-03-25T04:32:37.648Z,99144.03
2023-03-25T04:35:06.255Z,99135.47
2023-03-25T04:37:34.814Z,99128.19
2023-03-25T04:40:03.147Z,99120.94
2023-03-25T04:42:33.788Z,99118.75
2023-03-25T04:45:02.304Z,99124.03
2023-03-25T04:47:30.833Z,99116.03
2023-03-25T04:49:59.213Z,99106.50
2023-03-25T04:52:27.574Z,99094.88
2023-03-25T04:54:56.533Z,99097.47
2023-03-25T04:57:26.757Z,99087.00
2023-03-25T04:59:55.088Z,99085.84
2023-03-25T05:02:25.007Z,99079.91
2023-03-25T05:04:55.228Z,99076.22
2023-03-25T05:07:23.634Z,99071.03
2023-03-25T05:09:51.966Z,99065.81
2023-03-25T05:12:20.308Z,99061.38
2023-03-25T05:14:48.649Z,99062.06
2023-03-25T05:17:17.008Z,99056.84
2023-03-25T05:19:45.552Z,99052.22
2023-03-25T05:22:14.026Z,99047.03
2023-03-25T05:24:46.080Z,99041.66
2023-03-25T05:27:14.416Z,99036.44
2023-03-25T05:29:45.514Z,99020.25
2023-03-25T05:32:19.518Z,99028.34
2023-03-25T05:34:50.101Z,99020.88
2023-03-25T05:37:18.646Z,99007.91
2023-03-25T05:39:47.173Z,98996.97
2023-03-25T05:42:16.197Z,98999.53
2023-03-25T05:44:51.953Z,98987.09
2023-03-25T05:47:25.656Z,98985.47
2023-03-25T05:49:55.270Z,98981.59
2023-03-25T05:52:28.396Z,98969.91
2023-03-25T05:54:56.856Z,98967.50
2023-03-25T05:57:25.275Z,98963.00
2023-03-25T05:59:53.602Z,98959.28
2023-03-25T06:02:22.015Z,98947.44
2023-03-25T06:04:52.251Z,98944.13
2023-03-25T06:07:21.188Z,98939.47
2023-03-25T06:09:50.764Z,98935.41
2023-03-25T06:12:21.641Z,98932.88
2023-03-25T06:14:55.103Z,98921.91
2023-03-25T06:17:23.851Z,98918.00
2023-03-25T06:19:53.183Z,98910.63
2023-03-25T06:22:22.977Z,98914.53
2023-03-25T06:24:51.437Z,98907.03
2023-03-25T06:27:21.433Z,98894.13
2023-03-25T06:29:49.825Z,98886.16
2023-03-25T06:32:18.176Z,98880.59
2023-03-25T06:34:46.704Z,98877.28
2023-03-25T06:37:15.054Z,98876.22
2023-03-25T06:39:47.256Z,98867.22
2023-03-25T06:42:15.768Z,98868.88
2023-03-25T06:44:44.140Z,98864.94
2023-03-25T06:47:12.559Z,98850.66
2023-03-25T06:49:40.956Z,98848.41
2023-03-25T06:52:09.421Z,98841.97
2023-03-25T06:54:37.812Z,98833.41
2023-03-25T06:57:07.200Z,98841.34
2023-03-25T06:59:35.642Z,98836.41
2023-03-25T07:02:04.262Z,98832.03
2023-03-25T07:04:32.682Z,98829.34
2023-03-25T07:07:01.216Z,98817.31
2023-03-25T07:09:29.586Z,98816.84
2023-03-25T07:11:58.093Z,98819.06
2023-03-25T07:14:26.568Z,98807.94
2023-03-25T07:16:55.009Z,98801.47
2023-03-25T07:19:23.763Z,98798.16
2023-03-25T07:21:52.125Z,98801.16
2023-03-25T07:24:20.508Z,98799.22
2023-03-25T07:26:48.982Z,98786.44
2023-03-25T07:29:17.362Z,98780.25
2023-03-25T07:31:47.579Z,98777.38
2023-03-25T07:34:16.019Z,98778.16
2023-03-25T07:36:44.384Z,98771.69
2023-03-25T07:39:12.837Z,98766.59
2023-03-25T07:41:41.358Z,98760.25
2023-03-25T07:44:09.734Z,98754.41
2023-03-25T07:46:38.190Z,98754.28
2023-03-25T07:49:06.618Z,98744.34
2023-03-25T07:51:36.029Z,98749.31
2023-03-25T07:54:05.201Z,98738.66
2023-03-25T07:56:35.376Z,98733.69
2023-03-25T07:59:04.279Z,98732.81
2023-03-25T08:01:32.930Z,98717.63
2023-03-25T08:04:01.449Z,98725.91
2023-03-25T08:06:29.853Z,98717.81
2023-03-25T08:08:58.271Z,98723.53
2023-03-25T08:11:26.641Z,98706.13
2023-03-25T08:13:54.979Z,98706.00
2023-03-25T08:16:23.478Z,98711.72
2023-03-25T08:18:53.808Z,98697.16
2023-03-25T08:21:29.316Z,98684.13
2023-03-25T08:24:05.527Z,98689.69
2023-03-25T08:26:34.862Z,98685.34
2023-03-25T08:29:03.634Z,98682.34
2023-03-25T08:31:33.819Z,98678.59
2023-03-25T08:34:03.269Z,98671.88
2023-03-25T08:36:31.978Z,98667.53
2023-03-25T08:39:00.342Z,98659.56
2023-03-25T08:41:28.831Z,98656.44
2023-03-25T08:43:57.169Z,98667.84
2023-03-25T08:46:25.698Z,98663.47
2023-03-25T08:48:54.743Z,98663.22
2023-03-25T08:51:23.737Z,98650.31
2023-03-25T08:53:52.130Z,98655.88
2023-03-25T08:56:20.495Z,98658.72
2023-03-25T08:58:48.887Z,98652.88
2023-03-25T09:01:17.252Z,98644.19
2023-03-25T09:03:45.622Z,98646.88
2023-03-25T09:06:13.995Z,98643.75
2023-03-25T09:08:42.369Z,98643.75
2023-03-25T09:11:10.845Z,98644.34
2023-03-25T09:13:39.226Z,98646.31
2023-03-25T09:16:08.382Z,98638.25
2023-03-25T09:18:37.769Z,98642.31
2023-03-25T09:21:06.763Z,98638.56
2023-03-25T09:23:35.352Z,98646.84
2023-03-25T09:26:06.114Z,98643.88
2023-03-25T09:28:34.548Z,98638.03
2023-03-25T09:31:03.042Z,98644.91
2023-03-25T09:33:31.564Z,98641.03
2023-03-25T09:35:59.971Z,98650.78
2023-03-25T09:38:28.677Z,98649.00
2023-03-25T09:40:57.350Z,98640.91
2023-03-25T09:44:10.878Z,98639.13
2023-03-25T09:46:40.935Z,98638.41
2023-03-25T09:49:22.369Z,98643.69
2023-03-25T09:51:53.914Z,98639.66
2023-03-25T09:54:37.202Z,98633.66
2023-03-25T09:57:14.759Z,98642.34
2023-03-25T09:59:50.576Z,98648.50
2023-03-25T10:02:41.339Z,98636.81
2023-03-25T10:05:41.011Z,98635.78
2023-03-25T10:08:48.315Z,98646.72
2023-03-25T10:11:22.334Z,98642.09
2023-03-25T10:14:12.918Z,98641.47
2023-03-25T10:16:56.321Z,98640.44
2023-03-25T10:19:36.942Z,98646.44
2023-03-25T10:22:06.839Z,98642.56
2023-03-25T10:24:55.189Z,98637.88
2023-03-25T10:27:46.502Z,98648.03
2023-03-25T10:30:33.814Z,98643.25
2023-03-25T10:33:07.438Z,98648.66
2023-03-25T10:35:42.429Z,98644.75
2023-03-25T10:38:25.149Z,98642.97
2023-03-25T10:41:00.694Z,98640.97
2023-03-25T10:43:31.743Z,98646.97
2023-03-25T10:46:17.946Z,98648.00
2023-03-25T10:48:48.300Z,98650.97
2023-03-25T10:51:28.430Z,98648.97
2023-03-25T10:53:57.408Z,98652.72
2023-03-25T10:56:49.060Z,98654.03
2023-03-25T11:00:21.816Z,98660.41
2023-03-25T11:02:50.518Z,98668.16
2023-03-25T11:05:24.514Z,98669.59
2023-03-25T11:07:59.885Z,98666.25
2023-03-25T11:10:33.476Z,98672.78
2023-03-25T11:13:08.589Z,98684.88
2023-03-25T11:15:39.817Z,98674.94
2023-03-25T11:18:46.651Z,98683.56
2023-03-25T11:21:15.812Z,98684.22
2023-03-25T11:23:53.636Z,98683.56
2023-03-25T11:26:35.442Z,98675.13
2023-03-25T11:29:10.522Z,98685.06
2023-03-25T11:31:39.554Z,98687.41
2023-03-25T11:34:20.746Z,98687.69
2023-03-25T11:37:16.811Z,98694.31
2023-03-25T11:39:56.237Z,98692.88
2023-03-25T11:42:36.735Z,98695.97
2023-03-25T11:45:06.896Z,98700.41
2023-03-25T11:47:39.162Z,98701.19
2023-03-25T11:50:08.950Z,98703.53
2023-03-25T11:52:48.262Z,98702.28
2023-03-25T11:55:46.504Z,98708.03
2023-03-25T11:58:22.637Z,98715.22
2023-03-25T12:00:54.559Z,98717.53
2023-03-25T12:03:28.637Z,98719.84
2023-03-25T12:06:05.136Z,98724.41
2023-03-25T12:08:52.935Z,98720.50
2023-03-25T12:11:37.936Z,98719.38
2023-03-25T12:14:31.990Z,98721.84
2023-03-25T12:17:06.081Z,98725.84
2023-03-25T12:20:04.204Z,98733.25
2023-03-25T12:22:53.952Z,98737.81
2023-03-25T12:25:50.010Z,98740.28
2023-03-25T12:29:03.835Z,98741.28
2023-03-25T12:31:43.732Z,98747.13
2023-03-25T12:34:39.752Z,98748.25
2023-03-25T12:37:23.025Z,98738.09
2023-03-25T12:40:16.370Z,98749.81
2023-03-25T12:42:53.573Z,98750.22
2023-03-25T12:45:25.390Z,98755.50
2023-03-25T12:48:32.395Z,98758.75
2023-03-25T12:51:18.641Z,98760.44
2023-03-25T12:54:19.403Z,98762.72
2023-03-25T12:57:03.046Z,98765.78
2023-03-25T12:59:49.055Z,98780.31
2023-03-25T13:02:43.272Z,98779.03
2023-03-25T13:05:20.782Z,98783.53
2023-03-25T13:08:08.636Z,98785.06
2023-03-25T13:10:40.709Z,98787.34
2023-03-25T13:13:21.519Z,98791.13
2023-03-25T13:16:04.939Z,98792.81
2023-03-25T13:19:04.582Z,98793.75
2023-03-25T13:21:53.595Z,98803.19
2023-03-25T13:24:29.406Z,98808.47
2023-03-25T13:26:59.797Z,98803.97
2023-03-25T13:29:51.269Z,98805.47
2023-03-25T13:32:26.713Z,98812.09
2023-03-25T13:35:04.683Z,98812.44
2023-03-25T13:37:54.057Z,98813.94
2023-03-25T13:40:37.791Z,98819.00
2023-03-25T13:43:24.529Z,98823.53
2023-03-25T13:46:03.862Z,98835.78
2023-03-25T13:48:44.533Z,98834.63
2023-03-25T13:51:12.945Z,98841.41
2023-03-25T13:53:59.879Z,98853.84
2023-03-25T13:57:02.483Z,98850.63
2023-03-25T13:59:56.078Z,98858.72
2023-03-25T14:02:48.589Z,98864.56
2023-03-25T14:05:29.463Z,98872.66
2023-03-25T14:08:20.286Z,98874.31
2023-03-25T14:10:55.669Z,98885.78
2023-03-25T14:13:37.622Z,98889.91
2023-03-25T14:16:20.155Z,98887.44
2023-03-25T14:18:53.497Z,98887.03
2023-03-25T14:21:28.341Z,98894.56
2023-03-25T14:24:18.975Z,98898.31
2023-03-25T14:26:56.448Z,98903.53
2023-03-25T14:29:34.455Z,98904.47
2023-03-25T14:32:10.598Z,98904.81
2023-03-25T14:34:40.646Z,98909.53
2023-03-25T14:37:09.050Z,98916.28
2023-03-25T14:39:41.043Z,98922.28
2023-03-25T14:42:09.566Z,98922.66
2023-03-25T14:44:55.260Z,98924.53
2023-03-25T14:47:23.771Z,98925.06
2023-03-25T14:49:55.037Z,98917.69
2023-03-25T14:52:34.791Z,98918.81
2023-03-25T14:55:10.668Z,98923.50
2023-03-25T14:57:44.868Z,98919.72
2023-03-25T15:00:29.431Z,98927.22
2023-03-25T15:03:14.377Z,98927.03
2023-03-25T15:05:44.195Z,98925.50
2023-03-25T15:08:15.814Z,98925.50
2023-03-25T15:11:05.208Z,98926.25
2023-03-25T15:13:43.488Z,98926.03
2023-03-25T15:16:38.104Z,98926.25
2023-03-25T15:19:24.338Z,98936.25
2023-03-25T15:21:58.944Z,98933.44
2023-03-25T15:24:38.427Z,98935.69
2023-03-25T15:27:27.696Z,98930.81
2023-03-25T15:30:23.377Z,98931.56
2023-03-25T15:33:20.732Z,98935.16
2023-03-25T15:36:16.326Z,98938.72
2023-03-25T15:39:02.854Z,98940.03
2023-03-25T15:41:44.770Z,98940.59
2023-03-25T15:44:45.006Z,98931.88
2023-03-25T15:48:01.207Z,98945.81
2023-03-25T15:50:55.985Z,98941.47
2023-03-25T15:53:42.890Z,98949.72
2023-03-25T15:56:22.864Z,98944.66
2023-03-25T15:58:59.451Z,98942.94
2023-03-25T16:01:50.724Z,98947.06
2023-03-25T16:04:22.729Z,98941.22
2023-03-25T16:06:55.386Z,98942.28
2023-03-25T16:09:28.723Z,98947.94
2023-03-25T16:12:04.580Z,98944.91
2023-03-25T16:14:34.929Z,98958.28
2023-03-25T16:17:07.434Z,98953.19
2023-03-25T16:19:55.579Z,98953.72
2023-03-25T16:22:36.646Z,98950.91
2023-03-25T16:25:28.470Z,98941.28
2023-03-25T16:27:59.115Z,98948.38
2023-03-25T16:30:32.042Z,98948.72
2023-03-25T16:33:09.675Z,98951.91
2023-03-25T16:35:44.854Z,98956.34
2023-03-25T16:38:20.296Z,98951.06
2023-03-25T16:40:50.436Z,98950.84
2023-03-25T16:43:23.343Z,98960.81
2023-03-25T16:45:54.265Z,98957.78
2023-03-25T16:48:37.223Z,98957.78
2023-03-25T16:51:24.011Z,98954.97
2023-03-25T16:54:02.012Z,98950.84
2023-03-25T16:56:37.604Z,98956.69
2023-03-25T16:59:21.450Z,98942.03
2023-03-25T17:01:56.411Z,98947.88
2023-03-25T17:04:49.237Z,98938.13
2023-03-25T17:07:23.471Z,98931.72
2023-03-25T17:09:54.244Z,98935.84
2023-03-25T17:12:24.964Z,98932.06
2023-03-25T17:14:58.053Z,98919.81
2023-03-25T17:17:50.553Z,98925.25
2023-03-25T17:20:33.556Z,98925.25
2023-03-25T17:23:11.560Z,98920.94
2023-03-25T17:25:55.904Z,98915.09
2023-03-25T17:28:28.194Z,98915.44
2023-03-25T17:30:56.919Z,98914.22
2023-03-25T17:33:31.031Z,98910.25
2023-03-25T17:35:59.640Z,98907.75
2023-03-25T17:38:43.102Z,98903.97
2023-03-25T17:41:12.563Z,98909.41
2023-03-25T17:44:01.766Z,98900.19
2023-03-25T17:46:32.362Z,98897.91
2023-03-25T17:49:01.234Z,98904.66
2023-03-25T17:51:32.228Z,98896.75
2023-03-25T17:54:01.514Z,98890.69
2023-03-25T17:56:30.292Z,98889.72
2023-03-25T17:59:04.197Z,98893.66
2023-03-25T18:01:33.549Z,98893.97
2023-03-25T18:04:02.120Z,98884.34
2023-03-25T18:06:30.533Z,98878.28
2023-03-25T18:08:59.257Z,98874.50
2023-03-25T18:11:27.651Z,98875.59
2023-03-25T18:13:56.300Z,98875.41
2023-03-25T18:16:24.849Z,98873.13
2023-03-25T18:18:53.242Z,98867.28
2023-03-25T18:21:23.429Z,98859.94
2023-03-25T18:23:52.119Z,98863.28
2023-03-25T18:26:21.043Z,98850.03
2023-03-25T18:28:50.346Z,98852.66
2023-03-25T18:31:18.905Z,98844.53
2023-03-25T18:33:52.520Z,98845.63
2023-03-25T18:36:20.906Z,98843.91
2023-03-25T18:38:49.850Z,98839.38
2023-03-25T18:41:18.443Z,98844.03
2023-03-25T18:43:47.049Z,98841.22
2023-03-25T18:46:16.782Z,98842.53
2023-03-25T18:48:45.240Z,98846.84
2023-03-25T18:51:14.758Z,98851.75
2023-03-25T18:53:43.267Z,98851.53
2023-03-25T18:56:11.928Z,98845.69
2023-03-25T18:58:40.344Z,98846.22
2023-03-25T19:01:10.846Z,98837.53
2023-03-25T19:03:42.203Z,98831.72
2023-03-25T19:06:12.988Z,98830.75
2023-03-25T19:08:44.452Z,98832.59
2023-03-25T19:11:20.921Z,98831.06
2023-03-25T19:13:51.292Z,98833.13
2023-03-25T19:16:20.296Z,98825.22
2023-03-25T19:18:48.838Z,98828.38
2023-03-25T19:21:19.690Z,98826.66
2023-03-25T19:23:48.491Z,98829.25
2023-03-25T19:26:16.868Z,98821.69
2023-03-25T19:28:45.334Z,98828.94
2023-03-25T19:31:19.665Z,98835.88
2023-03-25T19:33:48.091Z,98828.72
2023-03-25T19:36:19.842Z,98829.25
2023-03-25T19:38:48.333Z,98831.09
2023-03-25T19:41:17.359Z,98831.97
2023-03-25T19:43:46.190Z,98819.75
2023-03-25T19:46:14.589Z,98814.44
2023-03-25T19:48:43.004Z,98812.16
2023-03-25T19:51:11.466Z,98806.13
2023-03-25T19:53:39.815Z,98809.47
2023-03-25T19:56:08.427Z,98807.72
2023-03-25T19:58:36.787Z,98801.13
2023-03-25T20:01:05.300Z,98808.25
2023-03-25T20:03:36.446Z,98800.38
2023-03-25T20:06:07.464Z,98805.44
2023-03-25T20:08:35.834Z,98807.50
2023-03-25T20:11:11.229Z,98813.91
2023-03-25T20:13:40.170Z,98819.53
2023-03-25T20:16:09.313Z,98825.69
2023-03-25T20:18:38.043Z,98824.19
2023-03-25T20:21:10.578Z,98833.16
2023-03-25T20:23:39.020Z,98822.44
2023-03-25T20:26:07.701Z,98825.03
2023-03-25T20:28:37.065Z,98819.22
2023-03-25T20:31:17.419Z,98819.53
2023-03-25T20:33:46.134Z,98822.69
2023-03-25T20:36:15.142Z,98823.22
2023-03-25T20:38:56.020Z,98825.06
2023-03-25T20:41:26.426Z,98834.78
2023-03-25T20:43:54.795Z,98832.53
2023-03-25T20:46:26.239Z,98834.34
2023-03-25T20:48:54.673Z,98825.69
2023-03-25T20:51:25.051Z,98826.00
2023-03-25T20:53:54.485Z,98839.84
2023-03-25T20:56:22.868Z,98838.63
2023-03-25T20:58:51.422Z,98847.38
2023-03-25T21:01:22.107Z,98841.88
2023-03-25T21:03:52.797Z,98852.13
2023-03-25T21:06:25.405Z,98851.13
2023-03-25T21:08:55.640Z,98850.38
2023-03-25T21:11:24.759Z,98849.41
2023-03-25T21:13:53.200Z,98844.31
2023-03-25T21:16:21.880Z,98851.97
2023-03-25T21:18:51.248Z,98853.28
2023-03-25T21:21:20.133Z,98853.81
2023-03-25T21:23:50.107Z,98857.16
2023-03-25T21:26:18.713Z,98854.34
2023-03-25T21:28:47.033Z,98850.56
2023-03-25T21:31:20.454Z,98856.94
2023-03-25T21:33:53.793Z,98853.91
2023-03-25T21:36:25.491Z,98861.59
2023-03-25T21:39:01.288Z,98866.22
2023-03-25T21:41:31.532Z,98864.50
2023-03-25T21:43:59.913Z,98867.84
2023-03-25T21:46:28.408Z,98866.31
2023-03-25T21:48:59.387Z,98868.91
2023-03-25T21:51:31.308Z,98870.22
2023-03-25T21:54:01.181Z,98872.25
2023-03-25T21:56:32.183Z,98887.06
2023-03-25T21:59:02.674Z,98886.06
2023-03-25T22:01:31.715Z,98885.31
2023-03-25T22:04:02.257Z,98889.19
2023-03-25T22:06:35.899Z,98887.66
2023-03-25T22:09:07.439Z,98895.13
2023-03-25T22:11:38.487Z,98894.13
2023-03-25T22:14:07.670Z,98902.34
2023-03-25T22:16:36.698Z,98892.94
2023-03-25T22:19:05.824Z,98900.59
2023-03-25T22:21:37.896Z,98923.59
2023-03-25T22:24:07.732Z,98927.72
2023-03-25T22:26:39.541Z,98939.47
2023-03-25T22:29:10.205Z,98940.78
2023-03-25T22:31:43.697Z,98943.34
2023-03-25T22:34:16.056Z,98940.53
2023-03-25T22:36:51.043Z,98944.13
2023-03-25T22:39:21.245Z,98942.59
2023-03-25T22:41:49.739Z,98947.44
2023-03-25T22:44:19.195Z,98945.91
2023-03-25T22:46:51.479Z,98953.59
2023-03-25T22:49:20.968Z,98963.53
2023-03-25T22:51:50.030Z,98973.25
2023-03-25T22:54:18.749Z,98970.97
2023-03-25T22:56:47.260Z,98989.34
2023-03-25T22:59:16.760Z,98988.56
2023-03-25T23:01:45.211Z,98977.84
2023-03-25T23:04:14.305Z,98993.19
2023-03-25T23:06:42.774Z,98991.66
2023-03-25T23:09:12.577Z,98994.25
2023-03-25T23:11:40.959Z,98994.00
2023-03-25T23:14:13.921Z,99001.69
2023-03-25T23:16:42.607Z,99011.41
2023-03-25T23:19:11.140Z,99014.72
2023-03-25T23:21:39.569Z,99013.75
2023-03-25T23:24:08.676Z,99017.09
2023-03-25T23:26:40.168Z,99018.38
2023-03-25T23:29:11.913Z,99019.13
2023-03-25T23:31:42.462Z,99026.78
2023-03-25T23:34:13.833Z,99040.06
2023-03-25T23:36:42.378Z,99037.78
2023-03-25T23:39:14.541Z,99036.50
2023-03-25T23:41:43.447Z,99035.22
2023-03-25T23:44:12.294Z,99035.97
2023-03-25T23:46:40.781Z,99042.34
2023-03-25T23:49:11.592Z,99039.03
2023-03-25T23:51:42.921Z,99042.06
2023-03-25T23:54:13.452Z,99037.44
2023-03-25T23:56:43.261Z,99044.78
2023-03-25T23:59:13.053Z,99056.25
